Time;durP1;ratioP1;P1;durP2;ratioP2;P2;SDS_P1;SDS_P2;PMS_P1;PMS_P2;Temp;Humidity;BMP_temperature;BMP_pressure;BME280_temperature;BME280_humidity;BME280_pressure;Samples;Min_cycle;Max_cycle;Signal;HPM_P1;HPM_P2
2023/01/30 00:00:57;;;;;;;17.20;10.10;;;;;;;-1.81;81.15;98624.81;5021644;28;19917;-86
2023/01/30 00:03:23;;;;;;;21.50;11.80;;;;;;;-1.79;81.04;98613.53;5018856;28;20035;-86
2023/01/30 00:05:50;;;;;;;19.65;10.98;;;;;;;-1.78;81.29;98610.00;5024276;28;20041;-86
2023/01/30 00:08:16;;;;;;;21.20;11.82;;;;;;;-1.85;81.12;98587.44;5021095;28;20657;-85
2023/01/30 00:10:43;;;;;;;17.52;10.85;;;;;;;-1.83;81.38;98601.00;5028021;28;20038;-86
2023/01/30 00:13:08;;;;;;;20.23;11.93;;;;;;;-1.84;81.22;98591.63;5025863;28;20033;-86
2023/01/30 00:15:35;;;;;;;21.10;10.82;;;;;;;-1.84;81.27;98605.31;5024374;28;20366;-86
2023/01/30 00:18:01;;;;;;;19.45;11.13;;;;;;;-1.84;81.53;98589.06;5022992;28;20045;-86
2023/01/30 00:20:27;;;;;;;25.08;11.55;;;;;;;-1.81;81.61;98591.41;5027364;28;20045;-87
2023/01/30 00:22:52;;;;;;;19.65;11.25;;;;;;;-1.82;81.45;98606.00;5031528;28;20034;-87
2023/01/30 00:25:18;;;;;;;18.85;9.98;;;;;;;-1.86;81.27;98611.47;5023816;28;20034;-87
2023/01/30 00:27:43;;;;;;;21.60;11.52;;;;;;;-1.87;81.72;98595.22;5011569;28;20034;-87
2023/01/30 00:30:10;;;;;;;19.77;10.07;;;;;;;-1.79;81.79;98602.41;5027785;28;20034;-87
2023/01/30 00:32:35;;;;;;;21.45;11.95;;;;;;;-1.58;81.47;98621.44;5013279;28;20087;-86
2023/01/30 00:35:01;;;;;;;18.25;10.23;;;;;;;-1.48;81.32;98614.72;5031417;28;20109;-86
2023/01/30 00:37:26;;;;;;;21.10;11.18;;;;;;;-1.34;81.00;98624.00;5018311;28;20738;-87
2023/01/30 00:39:51;;;;;;;18.45;10.48;;;;;;;-1.25;80.57;98622.53;5018602;28;20101;-87
2023/01/30 00:47:49;;;;;;;21.17;10.85;;;;;;;-1.00;79.59;98640.38;5023491;28;20060;-87
2023/01/30 00:50:15;;;;;;;23.25;12.10;;;;;;;-0.89;79.55;98650.69;5028548;28;20493;-87
2023/01/30 00:52:40;;;;;;;23.75;12.38;;;;;;;-0.81;79.30;98645.78;5018612;28;20424;-86
2023/01/30 00:55:07;;;;;;;23.20;11.88;;;;;;;-0.77;79.11;98650.72;5024397;28;20077;-86
2023/01/30 00:57:32;;;;;;;20.65;11.00;;;;;;;-0.75;78.39;98641.13;5031046;28;20485;-87
2023/01/30 00:59:58;;;;;;;18.85;10.90;;;;;;;-0.73;78.55;98629.75;5031313;28;20033;-87
2023/01/30 01:02:23;;;;;;;20.25;11.30;;;;;;;-0.65;78.63;98637.75;5021815;28;20141;-86
2023/01/30 01:04:49;;;;;;;20.73;12.02;;;;;;;-0.61;78.09;98633.16;5016086;28;20041;-86
2023/01/30 01:07:15;;;;;;;18.27;11.07;;;;;;;-0.66;77.97;98633.53;5030653;28;20343;-86
2023/01/30 01:09:40;;;;;;;21.08;11.07;;;;;;;-0.74;77.92;98627.28;4991730;28;20022;-86
2023/01/30 01:12:06;;;;;;;22.45;12.57;;;;;;;-1.13;79.49;98611.31;4974141;28;20125;-86
2023/01/30 01:14:33;;;;;;;19.17;10.50;;;;;;;-1.19;80.49;98611.78;5019118;28;20034;-86
2023/01/30 01:16:59;;;;;;;23.17;12.38;;;;;;;-1.14;81.09;98605.34;5020007;28;20037;-86
2023/01/30 01:19:24;;;;;;;18.83;10.85;;;;;;;-1.15;81.28;98608.00;5025744;28;20041;-86
2023/01/30 01:21:50;;;;;;;22.33;12.45;;;;;;;-1.21;82.00;98614.44;5024045;28;20030;-86
2023/01/30 01:24:16;;;;;;;23.92;11.50;;;;;;;-1.30;82.34;98602.25;5024248;28;20037;-85
2023/01/30 01:26:43;;;;;;;21.63;11.50;;;;;;;-1.30;83.14;98589.38;5023242;28;20048;-85
2023/01/30 01:29:15;;;;;;;16.92;9.45;;;;;;;-1.29;84.02;98582.50;5026199;28;20029;-85
2023/01/30 01:31:42;;;;;;;22.05;13.93;;;;;;;-1.28;84.35;98584.13;5029165;28;20030;-85
2023/01/30 01:34:09;;;;;;;21.15;10.98;;;;;;;-1.26;85.06;98580.53;5024056;28;20034;-85
2023/01/30 01:36:35;;;;;;;18.58;10.80;;;;;;;-1.21;85.71;98575.00;5025521;28;20033;-85
2023/01/30 01:39:02;;;;;;;22.30;13.40;;;;;;;-1.17;86.26;98558.41;5030146;28;20039;-85
2023/01/30 01:41:28;;;;;;;19.83;11.00;;;;;;;-1.10;86.43;98544.16;5025945;28;20095;-85
2023/01/30 01:44:05;;;;;;;19.85;11.00;;;;;;;-1.01;86.33;98545.22;5026653;28;20477;-85
2023/01/30 01:46:42;;;;;;;19.73;10.93;;;;;;;-0.97;86.49;98547.44;5019748;28;20547;-85
2023/01/30 01:49:18;;;;;;;20.60;11.43;;;;;;;-0.88;86.53;98553.66;5026158;28;20040;-85
2023/01/30 01:52:10;;;;;;;17.23;8.52;;;;;;;-0.91;86.60;98546.16;5015392;28;20041;-86
2023/01/30 01:54:42;;;;;;;18.75;9.75;;;;;;;-0.83;86.70;98542.06;5012698;28;20034;-85
2023/01/30 01:57:33;;;;;;;16.45;10.45;;;;;;;-0.86;86.97;98534.56;5028180;28;20033;-84
2023/01/30 02:00:18;;;;;;;22.23;11.25;;;;;;;-0.80;87.29;98533.28;5016660;28;20119;-84
2023/01/30 02:03:07;;;;;;;14.68;8.85;;;;;;;-0.73;87.60;98531.06;5013150;28;20117;-85
2023/01/30 02:05:39;;;;;;;17.88;9.20;;;;;;;-0.77;87.95;98515.03;5026614;28;20057;-85
2023/01/30 02:08:13;;;;;;;18.88;9.55;;;;;;;-0.54;87.65;98495.19;5017822;28;20069;-85
2023/01/30 02:11:01;;;;;;;18.65;9.75;;;;;;;-0.41;87.29;98503.63;5020160;28;20072;-85
2023/01/30 02:13:27;;;;;;;18.33;9.57;;;;;;;-0.37;87.26;98484.38;5023065;28;20030;-86
2023/01/30 02:15:57;;;;;;;17.38;9.10;;;;;;;-0.19;86.60;98486.44;5023248;28;20440;-86
2023/01/30 02:18:24;;;;;;;22.17;10.60;;;;;;;-0.17;86.04;98472.50;5025252;28;20104;-85
2023/01/30 02:21:13;;;;;;;19.38;10.18;;;;;;;-0.08;85.75;98470.94;5030644;28;20034;-86
2023/01/30 02:23:57;;;;;;;19.65;9.68;;;;;;;0.03;85.30;98452.84;5019245;28;20125;-85
2023/01/30 02:27:09;;;;;;;19.13;9.73;;;;;;;0.12;84.69;98448.69;5032257;28;20044;-85
2023/01/30 02:30:25;;;;;;;20.27;9.30;;;;;;;0.20;84.09;98438.59;5022908;28;20488;-86
2023/01/30 02:33:26;;;;;;;20.20;9.80;;;;;;;0.12;83.78;98464.16;5021320;28;20037;-84
2023/01/30 02:36:05;;;;;;;20.38;9.45;;;;;;;0.19;83.96;98458.41;5028009;28;20053;-85
2023/01/30 02:39:18;;;;;;;21.52;10.93;;;;;;;-0.01;84.23;98456.59;5018716;28;20034;-85
2023/01/30 02:41:55;;;;;;;17.98;9.10;;;;;;;0.14;84.30;98460.53;5012912;28;20058;-84
2023/01/30 02:44:57;;;;;;;17.90;9.48;;;;;;;0.28;84.35;98450.84;5030482;28;20038;-85
2023/01/30 02:47:56;;;;;;;15.80;8.52;;;;;;;0.22;83.54;98452.97;5024976;28;20532;-85
2023/01/30 02:50:39;;;;;;;16.67;8.77;;;;;;;0.11;84.02;98465.13;5025984;28;20610;-85
2023/01/30 02:53:06;;;;;;;21.73;11.57;;;;;;;0.00;84.45;98458.28;5019439;28;20060;-85
2023/01/30 02:55:32;;;;;;;19.55;9.85;;;;;;;-0.05;84.57;98429.44;5023723;28;20040;-85
2023/01/30 02:58:00;;;;;;;18.33;10.02;;;;;;;0.13;84.73;98448.59;5022886;28;20042;-85
2023/01/30 03:01:02;;;;;;;17.58;9.60;;;;;;;0.21;84.43;98425.56;5020347;28;20125;-85
2023/01/30 03:04:28;;;;;;;17.60;9.70;;;;;;;0.39;83.75;98425.78;5013337;28;20037;-85
2023/01/30 03:07:04;;;;;;;18.65;9.88;;;;;;;0.53;82.49;98425.44;5021852;28;20040;-85
2023/01/30 03:09:44;;;;;;;17.65;9.43;;;;;;;0.65;81.81;98415.88;5031468;28;20097;-85
2023/01/30 03:12:51;;;;;;;20.35;9.85;;;;;;;0.72;81.15;98411.00;5024205;28;20067;-86
2023/01/30 03:15:32;;;;;;;21.02;10.07;;;;;;;0.75;80.59;98398.66;5016664;28;20037;-85
2023/01/30 03:17:58;;;;;;;17.08;9.23;;;;;;;0.67;80.72;98388.19;5025386;28;20041;-85
2023/01/30 03:20:24;;;;;;;19.58;8.85;;;;;;;0.58;80.79;98381.19;5023813;28;20099;-85
2023/01/30 03:22:49;;;;;;;16.10;8.50;;;;;;;0.65;80.84;98384.88;5023885;28;20091;-85
2023/01/30 03:25:22;;;;;;;17.40;9.20;;;;;;;0.66;80.93;98378.81;5021969;28;20026;-85
2023/01/30 03:27:52;;;;;;;16.90;8.80;;;;;;;0.72;81.00;98373.13;4992766;28;20042;-85
2023/01/30 03:30:18;;;;;;;17.00;8.65;;;;;;;0.77;80.44;98376.09;5014915;28;20045;-85
2023/01/30 03:32:43;;;;;;;14.95;8.68;;;;;;;0.69;80.77;98367.38;5030949;28;20442;-85
2023/01/30 03:35:12;;;;;;;16.00;8.50;;;;;;;0.58;81.03;98365.72;5026693;28;20104;-85
2023/01/30 03:37:38;;;;;;;16.48;8.93;;;;;;;0.60;81.76;98369.00;5029023;28;20477;-85
2023/01/30 03:40:04;;;;;;;16.63;9.90;;;;;;;0.63;81.45;98378.25;5017724;28;20037;-85
2023/01/30 03:42:30;;;;;;;13.25;8.35;;;;;;;0.63;81.53;98376.47;5029145;28;20230;-85
2023/01/30 03:44:56;;;;;;;14.98;8.70;;;;;;;0.74;81.52;98370.41;5030158;28;20039;-85
2023/01/30 03:47:21;;;;;;;16.15;8.25;;;;;;;0.59;81.71;98362.19;5025733;28;20037;-85
2023/01/30 03:49:47;;;;;;;8.15;5.35;;;;;;;0.47;82.17;98361.44;5026477;28;20025;-85
2023/01/30 03:52:12;;;;;;;8.63;5.07;;;;;;;0.51;82.53;98354.28;5012263;28;20061;-85
2023/01/30 03:54:37;;;;;;;15.55;8.23;;;;;;;0.51;83.13;98346.53;5018967;28;20033;-85
2023/01/30 03:57:03;;;;;;;11.88;6.15;;;;;;;0.44;83.12;98346.25;5026354;28;20112;-85
2023/01/30 03:59:28;;;;;;;13.98;7.82;;;;;;;0.50;83.45;98357.81;5025187;28;20037;-85
2023/01/30 04:01:54;;;;;;;11.93;7.13;;;;;;;0.46;83.75;98364.16;5028135;28;20035;-85
2023/01/30 04:04:19;;;;;;;11.32;6.28;;;;;;;0.45;83.92;98365.13;5026522;28;20040;-85
2023/01/30 04:06:45;;;;;;;15.77;8.63;;;;;;;0.37;84.15;98358.03;5023775;28;20068;-85
2023/01/30 04:09:10;;;;;;;13.60;7.35;;;;;;;0.38;84.40;98364.81;5025776;28;20025;-85
2023/01/30 04:11:39;;;;;;;14.90;8.35;;;;;;;0.43;84.71;98367.84;5029092;28;20060;-85
2023/01/30 04:14:04;;;;;;;14.88;7.68;;;;;;;0.44;84.50;98363.50;5023891;28;20077;-85
2023/01/30 04:16:30;;;;;;;18.05;10.55;;;;;;;0.41;84.64;98374.06;5025517;28;20080;-85
2023/01/30 04:18:55;;;;;;;17.35;8.10;;;;;;;0.41;84.65;98363.72;5024119;28;20096;-85
2023/01/30 04:21:21;;;;;;;11.90;6.65;;;;;;;0.45;84.53;98360.78;5021978;28;20037;-84
2023/01/30 04:23:46;;;;;;;15.18;8.18;;;;;;;0.48;84.82;98375.16;5019950;28;20048;-84
2023/01/30 04:26:12;;;;;;;15.75;7.93;;;;;;;0.50;84.95;98368.13;5024346;28;20037;-84
2023/01/30 04:28:39;;;;;;;15.73;8.48;;;;;;;0.53;84.96;98360.13;5023891;28;20037;-84
2023/01/30 04:31:05;;;;;;;16.45;8.77;;;;;;;0.52;84.86;98348.97;5026341;28;20037;-85
2023/01/30 04:33:34;;;;;;;15.82;7.75;;;;;;;0.70;84.69;98369.00;5022375;28;20041;-84
2023/01/30 04:36:03;;;;;;;16.88;11.30;;;;;;;0.59;85.20;98357.00;5021458;28;20083;-84
2023/01/30 04:38:31;;;;;;;12.27;7.38;;;;;;;0.55;85.41;98355.66;5023276;28;20373;-85
2023/01/30 04:40:57;;;;;;;14.60;9.98;;;;;;;0.57;85.41;98356.34;5007407;28;20347;-84
2023/01/30 04:43:25;;;;;;;16.02;10.20;;;;;;;0.57;85.73;98348.59;5005382;28;20041;-85
2023/01/30 04:45:51;;;;;;;15.95;9.48;;;;;;;0.53;85.57;98349.78;5017779;28;20045;-85
2023/01/30 04:48:19;;;;;;;7.82;5.55;;;;;;;0.50;85.72;98347.50;5023684;28;20045;-84
2023/01/30 04:50:48;;;;;;;11.75;6.35;;;;;;;0.58;85.60;98332.16;5020005;28;20084;-85
2023/01/30 04:53:15;;;;;;;10.02;5.30;;;;;;;0.59;85.73;98320.88;5026885;28;20041;-84
2023/01/30 04:55:44;;;;;;;11.00;6.70;;;;;;;0.56;85.69;98341.00;5018751;28;20048;-84
2023/01/30 04:58:09;;;;;;;12.05;8.43;;;;;;;0.55;85.93;98314.38;5005501;28;20132;-84
2023/01/30 05:00:35;;;;;;;13.05;7.30;;;;;;;0.57;85.51;98327.94;5024447;28;20209;-84
2023/01/30 05:03:00;;;;;;;12.85;7.53;;;;;;;0.67;85.40;98323.63;5022968;28;20040;-84
2023/01/30 05:05:26;;;;;;;11.32;6.93;;;;;;;0.66;85.20;98324.59;5024280;28;20112;-84
2023/01/30 05:07:53;;;;;;;13.80;8.73;;;;;;;0.69;85.32;98332.06;5018893;28;20087;-84
2023/01/30 05:10:20;;;;;;;12.65;7.43;;;;;;;0.60;85.34;98317.38;5024531;28;20034;-85
2023/01/30 05:12:46;;;;;;;12.63;8.07;;;;;;;0.69;85.41;98321.72;5006318;28;20044;-85
2023/01/30 05:15:13;;;;;;;17.05;9.27;;;;;;;0.67;85.75;98315.91;5016075;28;20063;-84
2023/01/30 05:17:40;;;;;;;8.60;5.30;;;;;;;0.66;86.05;98306.53;5019545;28;20111;-84
2023/01/30 05:20:13;;;;;;;15.38;8.85;;;;;;;0.67;91.13;98308.16;5026738;28;20038;-83
2023/01/30 05:22:39;;;;;;;10.70;5.22;;;;;;;0.67;89.03;98321.06;5024819;28;20376;-85
2023/01/30 05:25:06;;;;;;;15.20;8.63;;;;;;;0.63;88.39;98306.78;5027663;28;20108;-83
2023/01/30 05:27:31;;;;;;;12.77;7.88;;;;;;;0.63;88.22;98305.97;5021795;28;20052;-84
2023/01/30 05:29:56;;;;;;;13.75;8.70;;;;;;;0.54;88.46;98302.41;5026544;28;20025;-84
2023/01/30 05:32:22;;;;;;;14.73;7.97;;;;;;;0.54;89.14;98307.56;5023664;28;20128;-84
2023/01/30 05:34:51;;;;;;;12.60;7.32;;;;;;;0.55;89.42;98298.88;5021740;28;20061;-84
2023/01/30 05:37:16;;;;;;;17.00;9.40;;;;;;;0.55;89.69;98298.06;5022200;28;20037;-84
2023/01/30 05:39:41;;;;;;;10.15;5.78;;;;;;;0.62;89.79;98299.16;5026369;28;20035;-84
2023/01/30 05:42:10;;;;;;;12.50;7.43;;;;;;;0.73;89.80;98291.31;5021777;28;20107;-84
2023/01/30 05:44:35;;;;;;;11.13;7.53;;;;;;;0.68;89.53;98296.88;5016625;28;20639;-84
2023/01/30 05:47:01;;;;;;;16.08;7.97;;;;;;;0.68;89.42;98299.44;5021741;28;20037;-84
2023/01/30 05:49:26;;;;;;;12.63;5.82;;;;;;;0.66;89.44;98292.78;5021148;28;20046;-84
2023/01/30 05:51:52;;;;;;;14.50;7.07;;;;;;;0.74;89.57;98274.88;5021272;28;20124;-85
2023/01/30 05:54:17;;;;;;;12.13;6.40;;;;;;;0.75;89.47;98273.91;5024298;28;20065;-84
2023/01/30 05:56:43;;;;;;;10.15;5.85;;;;;;;0.69;88.76;98277.84;5026994;28;20099;-84
2023/01/30 05:59:11;;;;;;;13.68;5.95;;;;;;;0.65;88.88;98268.72;5025167;28;20124;-84
2023/01/30 06:01:36;;;;;;;14.68;8.50;;;;;;;0.66;88.76;98283.28;5008882;28;20045;-84
2023/01/30 06:04:02;;;;;;;16.98;9.60;;;;;;;0.68;88.80;98283.97;5029146;28;20531;-83
2023/01/30 06:06:27;;;;;;;14.88;8.55;;;;;;;0.74;88.79;98287.78;5028335;28;20037;-83
2023/01/30 06:08:56;;;;;;;14.43;7.32;;;;;;;0.85;89.03;98284.28;5026999;28;20037;-84
2023/01/30 06:11:23;;;;;;;15.30;8.93;;;;;;;0.74;88.66;98296.34;5024798;28;20041;-85
2023/01/30 06:13:49;;;;;;;11.73;6.57;;;;;;;0.77;88.42;98292.66;5025941;28;20034;-84
2023/01/30 06:16:17;;;;;;;14.40;8.85;;;;;;;0.75;88.04;98290.22;5017025;28;20026;-84
2023/01/30 06:18:45;;;;;;;11.93;7.20;;;;;;;0.74;88.19;98285.19;5020567;28;20041;-84
2023/01/30 06:21:12;;;;;;;13.25;6.07;;;;;;;0.79;87.82;98290.78;5028145;28;20044;-84
2023/01/30 06:23:38;;;;;;;15.30;8.70;;;;;;;0.77;87.24;98285.72;5008314;28;20049;-84
2023/01/30 06:26:04;;;;;;;10.68;7.00;;;;;;;0.74;87.10;98288.59;5009445;28;20079;-84
2023/01/30 06:28:29;;;;;;;13.13;7.85;;;;;;;0.75;86.96;98285.06;5023626;28;20033;-84
2023/01/30 06:30:54;;;;;;;13.60;7.22;;;;;;;0.80;86.52;98288.06;5030973;28;20064;-85
2023/01/30 06:33:20;;;;;;;17.38;9.73;;;;;;;0.76;86.59;98285.88;5028494;28;20041;-84
2023/01/30 06:35:50;;;;;;;12.13;6.35;;;;;;;0.87;86.20;98292.69;5013229;28;20037;-83
2023/01/30 06:38:17;;;;;;;12.40;7.40;;;;;;;0.84;86.16;98292.94;5027610;28;20455;-83
2023/01/30 06:40:48;;;;;;;12.15;7.68;;;;;;;0.83;85.97;98302.47;5010457;28;20627;-84
2023/01/30 06:43:14;;;;;;;8.52;5.07;;;;;;;0.86;85.97;98293.66;5025305;28;20028;-83
2023/01/30 06:45:40;;;;;;;11.27;7.97;;;;;;;0.79;85.68;98288.22;5026919;28;20033;-84
2023/01/30 06:48:06;;;;;;;15.05;9.15;;;;;;;0.80;85.59;98289.84;5023946;28;20044;-83
2023/01/30 06:50:35;;;;;;;13.98;8.43;;;;;;;0.75;85.50;98292.81;5020333;28;20042;-83
2023/01/30 06:53:04;;;;;;;14.20;9.40;;;;;;;0.78;85.53;98289.97;5005008;28;20458;-83
2023/01/30 06:55:33;;;;;;;10.52;6.68;;;;;;;0.80;85.54;98277.75;5027906;28;20076;-83
2023/01/30 06:58:06;;;;;;;15.18;9.85;;;;;;;0.79;85.61;98291.59;5014038;28;20037;-83
2023/01/30 07:00:32;;;;;;;12.60;9.20;;;;;;;0.72;85.41;98305.16;5026543;28;20041;-84
2023/01/30 07:02:58;;;;;;;18.15;11.05;;;;;;;0.74;85.79;98293.75;5026242;28;20438;-83
2023/01/30 07:05:25;;;;;;;18.15;10.57;;;;;;;0.73;85.64;98317.94;5024980;28;20072;-84
2023/01/30 07:07:50;;;;;;;12.30;7.72;;;;;;;0.70;85.68;98302.72;5025728;28;20046;-84
2023/01/30 07:10:16;;;;;;;13.85;8.32;;;;;;;0.73;85.98;98276.66;5011458;28;20033;-84
2023/01/30 07:12:43;;;;;;;12.15;8.50;;;;;;;0.71;86.05;98277.72;5022494;28;20038;-83
2023/01/30 07:15:09;;;;;;;13.60;8.02;;;;;;;0.74;85.87;98273.09;5018442;28;20588;-84
2023/01/30 07:17:34;;;;;;;11.60;7.28;;;;;;;0.74;86.12;98283.44;5025892;28;20104;-84
2023/01/30 07:20:00;;;;;;;16.73;9.32;;;;;;;0.71;85.96;98268.19;5027770;28;20095;-84
2023/01/30 07:22:25;;;;;;;13.70;7.78;;;;;;;0.77;86.12;98270.25;5026654;28;20079;-84
2023/01/30 07:24:51;;;;;;;14.63;10.55;;;;;;;0.73;86.15;98274.06;5022169;28;20083;-84
2023/01/30 07:27:16;;;;;;;15.52;10.25;;;;;;;0.75;86.18;98264.41;5023590;28;20080;-83
2023/01/30 07:29:42;;;;;;;12.10;7.72;;;;;;;0.78;86.14;98253.81;5024700;28;20041;-83
2023/01/30 07:32:17;;;;;;;11.30;5.88;;;;;;;0.85;86.71;98238.59;5020203;28;20033;-83
2023/01/30 07:34:42;;;;;;;14.75;9.10;;;;;;;0.86;86.21;98244.59;5023274;28;20040;-83
2023/01/30 07:37:08;;;;;;;13.18;7.25;;;;;;;0.93;85.99;98240.50;5025858;28;20101;-83
2023/01/30 07:39:34;;;;;;;10.80;6.22;;;;;;;0.95;85.94;98239.41;5028062;28;20037;-83
2023/01/30 07:42:01;;;;;;;13.95;9.00;;;;;;;1.05;85.78;98236.84;5025148;28;20037;-83
2023/01/30 07:44:26;;;;;;;12.13;6.88;;;;;;;1.12;85.37;98234.53;5001920;28;20612;-82
2023/01/30 07:46:52;;;;;;;11.35;7.00;;;;;;;1.11;85.24;98222.56;5024707;28;20076;-83
2023/01/30 07:49:17;;;;;;;12.40;6.78;;;;;;;1.17;85.41;98220.25;5021804;28;20033;-83
2023/01/30 07:51:43;;;;;;;7.05;4.80;;;;;;;1.14;85.04;98211.94;5024582;28;20511;-83
2023/01/30 07:54:09;;;;;;;12.07;7.05;;;;;;;1.13;85.03;98220.66;5023787;28;20039;-84
2023/01/30 07:56:34;;;;;;;12.73;8.00;;;;;;;1.07;85.24;98220.25;5027893;28;20033;-85
2023/01/30 07:59:01;;;;;;;10.00;7.20;;;;;;;1.13;84.76;98215.50;5029705;28;20029;-83
2023/01/30 08:01:27;;;;;;;11.35;8.02;;;;;;;1.12;84.46;98209.50;5021010;28;20531;-85
2023/01/30 08:03:52;;;;;;;10.07;7.30;;;;;;;1.12;84.58;98206.94;5026253;28;20125;-83
2023/01/30 08:06:17;;;;;;;10.65;6.63;;;;;;;1.13;84.58;98200.81;5029448;28;20037;-83
2023/01/30 08:08:43;;;;;;;9.38;5.53;;;;;;;1.18;84.92;98183.13;4993706;28;20062;-84
2023/01/30 08:11:10;;;;;;;7.20;4.45;;;;;;;1.19;84.72;98189.91;5014629;28;20029;-83
2023/01/30 08:13:35;;;;;;;8.82;6.45;;;;;;;1.07;84.42;98202.16;5014325;28;20099;-84
2023/01/30 08:16:05;;;;;;;12.15;9.68;;;;;;;1.13;84.60;98216.31;5020840;28;20370;-84
2023/01/30 08:18:33;;;;;;;10.88;8.02;;;;;;;1.15;84.27;98219.59;5023276;28;20049;-84
2023/01/30 08:21:05;;;;;;;9.95;6.95;;;;;;;1.12;84.75;98191.44;5025255;28;20042;-83
2023/01/30 08:23:32;;;;;;;9.50;6.97;;;;;;;1.16;84.58;98194.56;5026434;28;20108;-84
2023/01/30 08:26:01;;;;;;;9.15;7.60;;;;;;;1.07;85.01;98185.84;5024117;28;20041;-84
2023/01/30 08:28:28;;;;;;;7.38;4.40;;;;;;;1.15;85.06;98196.34;5025685;28;20144;-83
2023/01/30 08:30:55;;;;;;;10.85;6.57;;;;;;;1.20;84.96;98178.66;5020974;28;20638;-84
2023/01/30 08:33:22;;;;;;;8.52;6.80;;;;;;;1.14;85.22;98199.03;5027264;28;20105;-84
2023/01/30 08:35:48;;;;;;;10.40;6.18;;;;;;;1.14;85.29;98191.28;5021591;28;20037;-84
2023/01/30 08:38:14;;;;;;;11.60;8.23;;;;;;;1.16;85.99;98194.56;5016818;28;20389;-85
2023/01/30 08:40:39;;;;;;;12.07;8.65;;;;;;;1.12;86.32;98178.50;5022346;28;20044;-83
2023/01/30 08:43:06;;;;;;;14.45;9.45;;;;;;;1.04;87.34;98186.13;5024105;28;20037;-85
2023/01/30 08:45:31;;;;;;;13.13;8.95;;;;;;;1.06;88.36;98200.53;5028084;28;20057;-85
2023/01/30 08:47:59;;;;;;;12.85;9.10;;;;;;;1.00;89.27;98189.94;5020566;28;20072;-85
2023/01/30 08:50:25;;;;;;;11.02;7.07;;;;;;;0.96;90.11;98184.25;5018553;28;20099;-85
2023/01/30 08:52:51;;;;;;;12.95;8.27;;;;;;;0.90;91.33;98177.06;5026494;28;20104;-85
2023/01/30 08:55:17;;;;;;;15.15;9.48;;;;;;;0.71;91.81;98158.94;5020092;28;20034;-86
2023/01/30 08:57:43;;;;;;;17.00;12.20;;;;;;;0.76;92.61;98167.13;5023932;28;20041;-86
2023/01/30 09:00:10;;;;;;;15.77;10.57;;;;;;;0.80;93.63;98186.56;5019185;28;20046;-86
2023/01/30 09:02:36;;;;;;;15.23;12.20;;;;;;;0.68;94.50;98172.97;5019436;28;20459;-86
2023/01/30 09:05:02;;;;;;;14.05;8.55;;;;;;;0.67;95.14;98176.50;5021289;28;20120;-84
2023/01/30 09:07:27;;;;;;;15.70;10.38;;;;;;;0.64;95.47;98178.53;5019722;28;20064;-85
2023/01/30 09:09:54;;;;;;;13.48;7.80;;;;;;;0.67;95.86;98173.91;5029698;28;20104;-86
2023/01/30 09:12:20;;;;;;;12.40;8.32;;;;;;;0.66;95.65;98163.69;5006842;28;20038;-86
2023/01/30 09:14:45;;;;;;;15.15;10.25;;;;;;;0.66;96.04;98159.38;5000980;28;20048;-86
2023/01/30 09:17:11;;;;;;;12.55;8.07;;;;;;;0.71;96.03;98153.78;4987006;28;20445;-85
2023/01/30 09:19:37;;;;;;;11.02;6.55;;;;;;;0.77;95.87;98169.56;5003638;28;20578;-86
2023/01/30 09:22:03;;;;;;;12.23;7.25;;;;;;;0.83;95.87;98162.22;5011698;28;20124;-86
2023/01/30 09:24:29;;;;;;;13.95;10.52;;;;;;;0.83;95.30;98177.72;4990796;28;20030;-85
2023/01/30 09:26:57;;;;;;;13.18;8.88;;;;;;;0.83;94.79;98177.72;5025195;28;20044;-85
2023/01/30 09:29:24;;;;;;;10.30;6.75;;;;;;;0.90;94.77;98173.63;5017397;28;20042;-85
2023/01/30 09:31:49;;;;;;;13.13;7.47;;;;;;;0.88;94.05;98157.47;5014276;28;20116;-85
2023/01/30 09:34:15;;;;;;;11.68;8.32;;;;;;;0.95;93.64;98154.19;5025723;28;20136;-85
2023/01/30 09:36:41;;;;;;;11.68;8.32;;;;;;;1.00;93.36;98149.44;5029551;28;20045;-86
2023/01/30 09:39:07;;;;;;;11.75;9.43;;;;;;;1.02;92.30;98157.03;5014482;28;20050;-84
2023/01/30 09:41:56;;;;;;;15.38;9.48;;;;;;;1.07;92.17;98180.69;5003416;28;20052;-85
2023/01/30 09:44:52;;;;;;;10.30;6.30;;;;;;;1.16;91.55;98173.91;5007270;28;20458;-85
2023/01/30 09:47:44;;;;;;;9.85;4.75;;;;;;;1.18;90.80;98157.28;5005742;28;20042;-85
2023/01/30 09:50:37;;;;;;;8.23;5.28;;;;;;;1.22;90.34;98158.66;4998110;28;20049;-85
2023/01/30 09:53:10;;;;;;;13.52;9.15;;;;;;;1.23;90.12;98162.06;5007026;28;20038;-84
2023/01/30 09:55:43;;;;;;;7.68;5.22;;;;;;;1.21;89.72;98144.09;5009825;28;20243;-85
2023/01/30 09:58:22;;;;;;;8.82;6.28;;;;;;;1.27;89.48;98156.47;5003579;28;20113;-84
2023/01/30 10:00:55;;;;;;;9.88;5.43;;;;;;;1.25;88.97;98160.94;5000761;28;20107;-84
2023/01/30 10:03:36;;;;;;;13.10;9.15;;;;;;;1.19;89.04;98143.41;5004610;28;20413;-84
2023/01/30 10:06:14;;;;;;;9.70;7.32;;;;;;;1.25;89.27;98147.22;5008408;28;20050;-84
2023/01/30 10:09:04;;;;;;;9.07;7.72;;;;;;;1.22;88.99;98148.31;5009339;28;20077;-84
2023/01/30 10:12:02;;;;;;;9.82;7.20;;;;;;;1.25;88.84;98173.03;5007411;28;20062;-84
2023/01/30 10:15:18;;;;;;;9.88;6.97;;;;;;;1.30;88.74;98151.00;4993330;28;20390;-84
2023/01/30 10:18:48;;;;;;;8.07;5.55;;;;;;;1.31;88.39;98142.28;5006136;28;20057;-84
2023/01/30 10:21:40;;;;;;;8.63;6.68;;;;;;;1.29;88.10;98157.13;4965408;28;20134;-84
2023/01/30 10:24:24;;;;;;;4.90;3.55;;;;;;;1.39;87.80;98149.38;5000252;28;20049;-84
2023/01/30 10:26:50;;;;;;;9.50;7.88;;;;;;;1.33;87.57;98155.91;5002360;28;20070;-84
2023/01/30 10:29:27;;;;;;;7.45;6.25;;;;;;;1.34;87.77;98167.88;5009441;28;20485;-84
2023/01/30 10:32:13;;;;;;;6.65;5.22;;;;;;;1.28;87.50;98131.44;5003493;28;20195;-83
2023/01/30 10:34:45;;;;;;;5.55;3.83;;;;;;;1.38;87.58;98141.72;4999277;28;20041;-83
2023/01/30 10:37:41;;;;;;;5.70;3.95;;;;;;;1.38;87.46;98146.91;5006961;28;20036;-84
2023/01/30 10:40:28;;;;;;;8.57;5.65;;;;;;;1.39;87.60;98140.81;5008510;28;20034;-84
2023/01/30 10:43:18;;;;;;;8.57;6.15;;;;;;;1.46;87.33;98149.63;5007216;28;20117;-84
2023/01/30 10:46:19;;;;;;;7.15;5.80;;;;;;;1.43;86.90;98139.56;5006598;28;20034;-85
2023/01/30 10:49:29;;;;;;;7.90;4.63;;;;;;;1.53;87.04;98137.75;5005944;28;20022;-84
2023/01/30 10:52:40;;;;;;;8.13;4.22;;;;;;;1.57;87.44;98139.13;4991295;28;20069;-84
2023/01/30 10:55:38;;;;;;;6.72;4.85;;;;;;;1.59;87.02;98150.13;5006313;28;20079;-85
2023/01/30 10:59:05;;;;;;;6.38;4.63;;;;;;;1.61;86.84;98125.75;5008975;28;20402;-84
2023/01/30 11:01:43;;;;;;;6.72;4.97;;;;;;;1.63;86.88;98132.56;4973036;28;20049;-84
2023/01/30 11:04:31;;;;;;;5.25;4.13;;;;;;;1.61;86.97;98112.00;5010429;28;20037;-83
2023/01/30 11:07:00;;;;;;;6.93;4.38;;;;;;;1.66;87.23;98116.75;5003548;28;20045;-83
2023/01/30 11:09:47;;;;;;;7.53;5.75;;;;;;;1.68;87.45;98113.09;5008368;28;20494;-84
2023/01/30 11:12:14;;;;;;;7.60;5.35;;;;;;;1.70;87.57;98115.53;4996445;28;20038;-84
2023/01/30 11:14:52;;;;;;;7.72;5.47;;;;;;;1.71;87.70;98106.81;4997125;28;20034;-83
2023/01/30 11:17:26;;;;;;;6.88;5.65;;;;;;;1.72;87.87;98124.75;4997138;28;20125;-84
2023/01/30 11:20:00;;;;;;;7.00;5.22;;;;;;;1.70;87.83;98106.00;5004873;28;20103;-83
2023/01/30 11:22:29;;;;;;;4.68;3.30;;;;;;;1.76;88.25;98104.59;5009628;28;20044;-83
2023/01/30 11:25:10;;;;;;;6.47;5.72;;;;;;;1.79;88.26;98118.03;5003503;28;20050;-83
2023/01/30 11:27:36;;;;;;;7.78;5.55;;;;;;;1.77;87.80;98099.28;5005286;28;20069;-83
2023/01/30 11:30:13;;;;;;;5.50;3.75;;;;;;;1.83;87.84;98092.72;4999217;28;20028;-83
2023/01/30 11:32:42;;;;;;;6.43;4.55;;;;;;;1.86;87.90;98105.38;5005565;28;20038;-83
2023/01/30 11:35:08;;;;;;;6.88;4.68;;;;;;;1.85;88.50;98109.72;4998405;28;20045;-83
2023/01/30 11:37:39;;;;;;;7.32;4.88;;;;;;;1.87;88.70;98107.81;5003413;28;20038;-82
2023/01/30 11:40:17;;;;;;;6.68;4.65;;;;;;;1.85;89.18;98108.91;5003605;28;20042;-83
2023/01/30 11:42:46;;;;;;;9.00;5.93;;;;;;;1.82;89.97;98093.69;5000661;28;20053;-83
2023/01/30 11:45:12;;;;;;;8.80;6.32;;;;;;;1.80;90.37;98101.59;5006677;28;20131;-83
2023/01/30 11:47:56;;;;;;;7.97;4.43;;;;;;;1.79;90.84;98088.78;5005762;28;20033;-83
2023/01/30 11:50:31;;;;;;;7.57;5.00;;;;;;;1.82;91.85;98099.66;5005075;28;20025;-83
2023/01/30 11:53:04;;;;;;;6.25;4.82;;;;;;;1.74;91.89;98106.50;4996570;28;20045;-84
2023/01/30 11:55:36;;;;;;;7.22;6.07;;;;;;;1.71;92.53;98099.84;4999746;28;20037;-84
2023/01/30 11:58:08;;;;;;;10.02;6.45;;;;;;;1.67;92.93;98111.44;4997770;28;20038;-84